createdAt,value
2019-02-25T00:01:52.191Z,3.00
2019-02-25T00:04:20.321Z,2.90
2019-02-25T00:06:48.643Z,2.90
2019-02-25T00:09:16.870Z,2.90
2019-02-25T00:11:45.088Z,2.90
2019-02-25T00:14:13.320Z,2.90
2019-02-25T00:16:41.606Z,2.80
2019-02-25T00:19:09.763Z,2.80
2019-02-25T00:21:37.980Z,2.80
2019-02-25T00:24:06.159Z,2.80
2019-02-25T00:26:34.475Z,2.80
2019-02-25T00:29:02.632Z,2.80
2019-02-25T00:31:30.954Z,2.80
2019-02-25T00:33:59.112Z,2.80
2019-02-25T00:36:27.342Z,2.80
2019-02-25T00:38:55.504Z,2.80
2019-02-25T00:41:23.737Z,2.80
2019-02-25T00:43:51.909Z,2.70
2019-02-25T00:46:20.132Z,2.80
2019-02-25T00:48:48.296Z,2.70
2019-02-25T00:51:16.535Z,2.80
2019-02-25T00:53:44.722Z,2.70
2019-02-25T00:56:12.932Z,2.70
2019-02-25T00:58:41.265Z,2.70
2019-02-25T01:01:09.490Z,2.60
2019-02-25T01:03:37.717Z,2.60
2019-02-25T01:06:05.941Z,2.70
2019-02-25T01:08:34.186Z,2.70
2019-02-25T01:11:02.408Z,2.70
2019-02-25T01:13:30.624Z,2.70
2019-02-25T01:15:58.879Z,2.70
2019-02-25T01:18:27.131Z,2.70
2019-02-25T01:20:55.331Z,2.70
2019-02-25T01:23:23.523Z,2.70
2019-02-25T01:25:51.738Z,2.70
2019-02-25T01:28:19.991Z,2.70
2019-02-25T01:30:48.194Z,2.70
2019-02-25T01:33:16.420Z,2.70
2019-02-25T01:35:44.589Z,2.70
2019-02-25T01:38:12.799Z,2.70
2019-02-25T01:40:40.950Z,2.70
2019-02-25T01:43:09.289Z,2.70
2019-02-25T01:45:37.500Z,2.70
2019-02-25T01:48:05.711Z,2.70
2019-02-25T01:50:33.917Z,2.70
2019-02-25T01:53:02.101Z,2.70
2019-02-25T01:55:30.269Z,2.70
2019-02-25T01:57:58.470Z,2.70
2019-02-25T02:00:26.640Z,2.60
2019-02-25T02:02:54.817Z,2.60
2019-02-25T02:05:24.545Z,2.60
2019-02-25T02:07:53.089Z,2.60
2019-02-25T02:10:21.367Z,2.60
2019-02-25T02:12:49.563Z,2.60
2019-02-25T02:15:17.838Z,2.60
2019-02-25T02:17:46.006Z,2.60
2019-02-25T02:20:14.750Z,2.60
2019-02-25T02:22:42.998Z,2.60
2019-02-25T02:25:11.309Z,2.60
2019-02-25T02:27:39.570Z,2.60
2019-02-25T02:30:12.019Z,2.60
2019-02-25T02:32:40.252Z,2.60
2019-02-25T02:35:08.546Z,2.60
2019-02-25T02:37:36.711Z,2.60
2019-02-25T02:40:05.778Z,2.60
2019-02-25T02:42:34.164Z,2.50
2019-02-25T02:45:35.209Z,2.50
2019-02-25T02:48:20.612Z,2.60
2019-02-25T02:50:48.750Z,2.60
2019-02-25T02:53:16.974Z,2.50
2019-02-25T02:55:45.200Z,2.50
2019-02-25T02:58:13.405Z,2.50
2019-02-25T03:00:41.662Z,2.40
2019-02-25T03:03:10.005Z,2.50
2019-02-25T03:05:38.233Z,2.50
2019-02-25T03:08:06.598Z,2.50
2019-02-25T03:10:34.892Z,2.50
2019-02-25T03:13:03.104Z,2.50
2019-02-25T03:15:31.337Z,2.50
2019-02-25T03:17:59.518Z,2.40
2019-02-25T03:20:27.720Z,2.40
2019-02-25T03:22:55.997Z,2.40
2019-02-25T03:25:24.367Z,2.40
2019-02-25T03:27:52.758Z,2.40
2019-02-25T03:30:22.583Z,2.40
2019-02-25T03:32:50.861Z,2.40
2019-02-25T03:35:19.060Z,2.40
2019-02-25T03:37:47.353Z,2.40
2019-02-25T03:40:17.627Z,2.30
2019-02-25T03:42:45.814Z,2.30
2019-02-25T03:45:15.737Z,2.30
2019-02-25T03:47:43.904Z,2.20
2019-02-25T03:50:12.323Z,2.20
2019-02-25T03:52:40.541Z,2.20
2019-02-25T03:55:14.260Z,2.20
2019-02-25T03:57:42.613Z,2.20
2019-02-25T04:00:19.494Z,2.20
2019-02-25T04:02:47.661Z,2.10
2019-02-25T04:05:15.979Z,2.10
2019-02-25T04:07:44.377Z,2.10
2019-02-25T04:10:12.876Z,2.10
2019-02-25T04:12:41.189Z,2.10
2019-02-25T04:15:15.461Z,2.10
2019-02-25T04:17:43.663Z,2.10
2019-02-25T04:20:13.523Z,2.10
2019-02-25T04:22:41.676Z,2.00
2019-02-25T04:25:09.962Z,2.00
2019-02-25T04:27:41.204Z,2.00
2019-02-25T04:30:12.795Z,2.00
2019-02-25T04:32:40.962Z,2.00
2019-02-25T04:35:09.936Z,2.00
2019-02-25T04:37:38.142Z,2.10
2019-02-25T04:40:08.301Z,2.10
2019-02-25T04:42:36.444Z,2.00
2019-02-25T04:45:07.078Z,2.00
2019-02-25T04:47:35.285Z,1.90
2019-02-25T04:50:03.794Z,1.90
2019-02-25T04:52:31.956Z,1.90
2019-02-25T04:55:00.384Z,1.90
2019-02-25T04:57:28.564Z,1.90
2019-02-25T04:59:56.807Z,1.80
2019-02-25T05:02:24.933Z,1.80
2019-02-25T05:04:53.164Z,1.90
2019-02-25T05:07:21.361Z,1.80
2019-02-25T05:09:49.693Z,1.80
2019-02-25T05:12:17.876Z,1.80
2019-02-25T05:14:46.270Z,1.80
2019-02-25T05:17:14.415Z,1.80
2019-02-25T05:19:42.620Z,1.80
2019-02-25T05:22:10.771Z,1.80
2019-02-25T05:24:39.033Z,1.80
2019-02-25T05:27:07.202Z,1.80
2019-02-25T05:29:35.544Z,1.80
2019-02-25T05:32:03.758Z,1.80
2019-02-25T05:34:31.955Z,1.80
2019-02-25T05:37:00.190Z,1.80
2019-02-25T05:39:28.304Z,1.80
2019-02-25T05:41:56.581Z,1.90
2019-02-25T05:44:24.843Z,1.80
2019-02-25T05:46:53.062Z,1.80
2019-02-25T05:49:21.223Z,1.80
2019-02-25T05:51:49.435Z,1.80
2019-02-25T05:54:17.594Z,1.90
2019-02-25T05:56:45.797Z,1.90
2019-02-25T05:59:13.973Z,1.90
2019-02-25T06:01:42.207Z,2.00
2019-02-25T06:04:10.386Z,2.00
2019-02-25T06:06:38.594Z,2.10
2019-02-25T06:09:06.773Z,2.10
2019-02-25T06:11:35.154Z,2.10
2019-02-25T06:14:04.388Z,2.20
2019-02-25T06:16:32.820Z,2.20
2019-02-25T06:19:01.256Z,2.20
2019-02-25T06:21:29.697Z,2.20
2019-02-25T06:23:57.960Z,2.20
2019-02-25T06:26:26.286Z,2.20
2019-02-25T06:28:54.517Z,2.30
2019-02-25T06:31:22.727Z,2.20
2019-02-25T06:33:51.025Z,2.30
2019-02-25T06:36:19.281Z,2.40
2019-02-25T06:38:47.573Z,2.40
2019-02-25T06:41:15.855Z,2.50
2019-02-25T06:43:44.057Z,2.60
2019-02-25T06:46:12.392Z,2.60
2019-02-25T06:48:40.573Z,2.60
2019-02-25T06:51:08.856Z,2.70
2019-02-25T06:53:37.170Z,2.70
2019-02-25T06:56:05.352Z,2.80
2019-02-25T06:58:33.530Z,2.90
2019-02-25T07:01:02.030Z,3.00
2019-02-25T07:03:30.215Z,3.10
2019-02-25T07:06:07.729Z,3.20
2019-02-25T07:09:07.779Z,3.20
2019-02-25T07:11:42.415Z,3.30
2019-02-25T07:14:33.109Z,3.30
2019-02-25T07:17:23.537Z,3.40
2019-02-25T07:20:23.291Z,3.50
2019-02-25T07:22:58.503Z,3.40
2019-02-25T07:25:42.343Z,3.30
2019-02-25T07:28:36.736Z,3.40
2019-02-25T07:31:15.992Z,3.60
2019-02-25T07:34:09.658Z,3.70
2019-02-25T07:37:00.179Z,3.90
2019-02-25T07:39:35.743Z,4.00
2019-02-25T07:42:22.143Z,4.20
2019-02-25T07:45:11.289Z,4.50
2019-02-25T07:47:50.796Z,4.70
2019-02-25T07:50:47.132Z,5.30
2019-02-25T07:53:30.374Z,5.90
2019-02-25T07:56:21.164Z,6.50
2019-02-25T07:59:10.265Z,6.60
2019-02-25T08:02:03.874Z,6.80
2019-02-25T08:05:06.547Z,6.60
2019-02-25T08:08:09.902Z,6.80
2019-02-25T08:10:48.389Z,7.10
2019-02-25T08:13:37.358Z,7.40
2019-02-25T08:16:23.775Z,7.70
2019-02-25T08:19:10.340Z,8.00
2019-02-25T08:22:04.066Z,8.10
2019-02-25T08:24:54.431Z,8.20
2019-02-25T08:27:35.481Z,8.40
2019-02-25T08:30:38.433Z,8.70
2019-02-25T08:33:15.288Z,8.90
2019-02-25T08:37:02.743Z,8.90
2019-02-25T08:39:47.548Z,9.80
2019-02-25T08:42:44.724Z,10.10
2019-02-25T08:45:22.885Z,10.30
2019-02-25T08:47:57.330Z,10.70
2019-02-25T08:50:25.573Z,10.50
2019-02-25T08:52:53.813Z,9.80
2019-02-25T08:55:21.976Z,9.50
2019-02-25T08:57:50.131Z,9.40
2019-02-25T09:00:18.352Z,9.70
2019-02-25T09:02:46.555Z,9.80
2019-02-25T09:05:14.812Z,9.60
2019-02-25T09:07:43.120Z,9.90
2019-02-25T09:10:13.449Z,10.40
2019-02-25T09:12:42.106Z,11.00
2019-02-25T09:15:10.867Z,11.60
2019-02-25T09:17:44.009Z,12.00
2019-02-25T09:20:13.484Z,12.10
2019-02-25T09:22:41.891Z,12.30
2019-02-25T09:25:10.447Z,12.50
2019-02-25T09:27:38.700Z,12.80
2019-02-25T09:30:12.357Z,12.60
2019-02-25T09:32:40.557Z,12.40
2019-02-25T09:35:08.982Z,12.80
2019-02-25T09:37:37.378Z,13.40
2019-02-25T09:40:08.166Z,14.10
2019-02-25T09:42:36.389Z,13.40
2019-02-25T09:45:06.020Z,12.70
2019-02-25T09:47:34.208Z,12.60
2019-02-25T09:50:02.431Z,13.00
2019-02-25T09:52:30.680Z,13.20
2019-02-25T09:54:58.889Z,13.30
2019-02-25T09:57:27.052Z,13.90
2019-02-25T09:59:55.325Z,14.10
2019-02-25T10:02:24.844Z,14.50
2019-02-25T10:04:53.172Z,14.00
2019-02-25T10:07:21.370Z,13.30
2019-02-25T10:09:49.560Z,13.10
2019-02-25T10:12:17.907Z,13.40
2019-02-25T10:14:46.173Z,13.90
2019-02-25T10:17:23.301Z,14.30
2019-02-25T10:19:44.463Z,14.50
2019-02-25T10:22:12.641Z,15.00
2019-02-25T10:24:40.827Z,15.70
2019-02-25T10:27:09.454Z,16.20
2019-02-25T10:29:37.627Z,16.30
2019-02-25T10:32:06.550Z,15.90
2019-02-25T10:34:34.947Z,15.50
2019-02-25T10:37:03.156Z,15.50
2019-02-25T10:39:31.363Z,15.70
2019-02-25T10:42:02.020Z,15.90
2019-02-25T10:44:31.734Z,15.80
2019-02-25T10:46:59.783Z,16.10
2019-02-25T10:49:29.399Z,16.50
2019-02-25T10:51:58.174Z,16.70
2019-02-25T10:54:26.382Z,17.20
2019-02-25T10:57:14.558Z,17.20
2019-02-25T10:59:42.733Z,17.70
2019-02-25T11:02:11.669Z,18.60
2019-02-25T11:04:41.191Z,18.80
2019-02-25T11:07:09.752Z,17.50
2019-02-25T11:10:07.007Z,17.10
2019-02-25T11:12:35.422Z,17.00
2019-02-25T11:15:05.271Z,17.10
2019-02-25T11:17:34.266Z,17.70
2019-02-25T11:20:03.701Z,17.10
2019-02-25T11:22:32.651Z,16.40
2019-02-25T11:25:00.898Z,16.30
2019-02-25T11:27:31.339Z,16.50
2019-02-25T11:29:59.335Z,16.60
2019-02-25T11:32:27.999Z,16.40
2019-02-25T11:34:56.255Z,16.80
2019-02-25T11:37:26.571Z,16.60
2019-02-25T11:39:55.323Z,16.80
2019-02-25T11:42:24.798Z,17.10
2019-02-25T11:44:54.267Z,17.40
2019-02-25T11:47:23.197Z,16.40
2019-02-25T11:49:51.369Z,16.20
2019-02-25T11:52:19.627Z,16.30
2019-02-25T11:54:47.918Z,16.20
2019-02-25T11:57:16.136Z,16.50
2019-02-25T11:59:44.478Z,16.30
2019-02-25T12:02:12.655Z,15.70
2019-02-25T12:04:40.885Z,15.40
2019-02-25T12:07:09.188Z,15.90
2019-02-25T12:09:37.404Z,15.80
2019-02-25T12:12:05.614Z,16.20
2019-02-25T12:14:33.969Z,15.30
2019-02-25T12:17:02.255Z,14.80
2019-02-25T12:19:30.505Z,15.10
2019-02-25T12:21:58.711Z,14.30
2019-02-25T12:24:26.894Z,14.30
2019-02-25T12:26:55.163Z,14.50
2019-02-25T12:29:23.405Z,14.70
2019-02-25T12:31:51.636Z,14.70
2019-02-25T12:34:19.991Z,14.30
2019-02-25T12:36:48.197Z,13.90
2019-02-25T12:39:16.482Z,13.50
2019-02-25T12:41:44.636Z,13.30
2019-02-25T12:44:12.888Z,13.10
2019-02-25T12:46:41.079Z,12.80
2019-02-25T12:49:09.410Z,13.10
2019-02-25T12:51:37.629Z,13.20
2019-02-25T12:54:06.011Z,13.10
2019-02-25T12:56:34.267Z,12.70
2019-02-25T12:59:02.648Z,12.20
2019-02-25T13:01:30.936Z,11.90
2019-02-25T13:03:59.172Z,11.80
2019-02-25T13:06:27.345Z,11.50
2019-02-25T13:08:55.585Z,11.60
2019-02-25T13:11:23.820Z,11.90
2019-02-25T13:13:52.031Z,12.10
2019-02-25T13:16:20.336Z,12.00
2019-02-25T13:18:48.477Z,11.80
2019-02-25T13:21:16.682Z,11.50
2019-02-25T13:23:44.938Z,11.30
2019-02-25T13:26:13.079Z,10.70
2019-02-25T13:28:41.249Z,10.60
2019-02-25T13:31:10.218Z,10.50
2019-02-25T13:33:38.879Z,10.80
2019-02-25T13:36:11.770Z,10.70
2019-02-25T13:38:39.975Z,10.40
2019-02-25T13:41:08.399Z,10.20
2019-02-25T13:43:36.637Z,10.00
2019-02-25T13:46:04.812Z,10.10
2019-02-25T13:48:33.026Z,10.30
2019-02-25T13:51:01.354Z,10.10
2019-02-25T13:53:29.569Z,9.80
2019-02-25T13:55:57.745Z,9.70
2019-02-25T13:58:25.977Z,9.80
2019-02-25T14:00:54.156Z,9.70
2019-02-25T14:03:22.339Z,9.70
2019-02-25T14:05:50.542Z,9.50
2019-02-25T14:08:18.840Z,9.40
2019-02-25T14:10:47.168Z,9.40
2019-02-25T14:13:15.409Z,9.50
2019-02-25T14:15:43.677Z,9.60
2019-02-25T14:18:11.960Z,9.50
2019-02-25T14:20:40.111Z,9.40
2019-02-25T14:23:08.410Z,9.20
2019-02-25T14:25:38.352Z,9.20
2019-02-25T14:28:08.238Z,9.30
2019-02-25T14:30:36.548Z,9.10
2019-02-25T14:33:04.745Z,9.00
2019-02-25T14:35:33.016Z,9.00
2019-02-25T14:38:07.587Z,9.20
2019-02-25T14:40:32.846Z,9.20
2019-02-25T14:43:04.071Z,9.00
2019-02-25T14:45:33.975Z,8.90
2019-02-25T14:48:03.249Z,8.50
2019-02-25T14:50:31.478Z,8.40
2019-02-25T14:53:00.737Z,8.10
2019-02-25T14:55:29.462Z,8.00
2019-02-25T14:57:59.966Z,7.90
2019-02-25T15:00:28.941Z,7.80
2019-02-25T15:02:57.960Z,7.80
2019-02-25T15:05:26.194Z,7.60
2019-02-25T15:07:54.411Z,7.40
2019-02-25T15:10:26.649Z,7.40
2019-02-25T15:12:56.511Z,7.40
2019-02-25T15:15:22.903Z,7.20
2019-02-25T15:17:52.724Z,7.10
2019-02-25T15:20:22.848Z,7.00
2019-02-25T15:22:51.187Z,7.00
2019-02-25T15:25:19.461Z,7.00
2019-02-25T15:27:47.711Z,7.00
2019-02-25T15:30:20.714Z,7.00
2019-02-25T15:32:55.688Z,7.00
2019-02-25T15:35:20.503Z,7.00
2019-02-25T15:37:51.230Z,6.90
2019-02-25T15:40:22.633Z,6.70
2019-02-25T15:43:02.274Z,6.70
2019-02-25T15:45:32.871Z,6.70
2019-02-25T15:48:01.720Z,6.70
2019-02-25T15:50:30.267Z,6.60
2019-02-25T15:53:00.890Z,6.30
2019-02-25T15:55:28.661Z,6.20
2019-02-25T15:57:56.912Z,6.20
2019-02-25T16:00:27.620Z,6.00
2019-02-25T16:02:56.891Z,5.90
2019-02-25T16:05:27.397Z,6.10
2019-02-25T16:08:00.655Z,6.20
2019-02-25T16:10:29.195Z,6.00
2019-02-25T16:12:57.840Z,6.00
2019-02-25T16:15:26.529Z,6.10
2019-02-25T16:17:54.677Z,5.90
2019-02-25T16:20:22.935Z,5.70
2019-02-25T16:22:51.114Z,5.50
2019-02-25T16:25:19.340Z,5.40
2019-02-25T16:27:49.856Z,5.40
2019-02-25T16:30:19.091Z,5.50
2019-02-25T16:32:48.465Z,5.20
2019-02-25T16:35:16.744Z,5.10
2019-02-25T16:37:45.330Z,5.10
2019-02-25T16:40:13.656Z,5.20
2019-02-25T16:42:42.061Z,5.20
2019-02-25T16:45:14.205Z,5.10
2019-02-25T16:47:42.478Z,5.10
2019-02-25T16:50:12.555Z,5.30
2019-02-25T16:52:42.897Z,5.40
2019-02-25T16:55:15.357Z,5.50
2019-02-25T16:57:43.527Z,5.40
2019-02-25T17:00:14.498Z,5.40
2019-02-25T17:02:44.754Z,5.20
2019-02-25T17:05:12.782Z,5.00
2019-02-25T17:07:42.625Z,5.00
2019-02-25T17:10:14.044Z,4.80
2019-02-25T17:12:43.698Z,4.70
2019-02-25T17:15:13.321Z,4.70
2019-02-25T17:17:41.528Z,4.70
2019-02-25T17:20:13.103Z,4.70
2019-02-25T17:22:41.662Z,4.60
2019-02-25T17:25:12.144Z,4.60
2019-02-25T17:27:40.453Z,4.70
2019-02-25T17:30:15.185Z,4.80
2019-02-25T17:32:44.141Z,4.80
2019-02-25T17:35:14.251Z,4.70
2019-02-25T17:37:42.492Z,4.70
2019-02-25T17:40:13.118Z,4.70
2019-02-25T17:42:41.000Z,4.80
2019-02-25T17:45:13.019Z,5.00
2019-02-25T17:47:41.925Z,4.90
2019-02-25T17:50:11.601Z,5.00
2019-02-25T17:52:40.913Z,5.00
2019-02-25T17:55:13.434Z,4.90
2019-02-25T17:57:41.656Z,4.90
2019-02-25T18:00:19.624Z,5.00
2019-02-25T18:02:47.928Z,5.10
2019-02-25T18:05:16.892Z,5.10
2019-02-25T18:07:46.508Z,5.10
2019-02-25T18:10:15.360Z,5.10
2019-02-25T18:12:43.631Z,5.10
2019-02-25T18:15:17.072Z,5.10
2019-02-25T18:17:47.120Z,5.00
2019-02-25T18:20:15.686Z,4.90
2019-02-25T18:22:43.982Z,5.00
2019-02-25T18:25:12.268Z,5.10
2019-02-25T18:27:41.413Z,5.20
2019-02-25T18:30:10.015Z,5.20
2019-02-25T18:32:39.117Z,5.10
2019-02-25T18:35:08.627Z,5.10
2019-02-25T18:37:37.653Z,5.10
2019-02-25T18:40:06.620Z,5.00
2019-02-25T18:42:36.472Z,5.10
2019-02-25T18:45:08.603Z,5.10
2019-02-25T18:47:36.862Z,5.10
2019-02-25T18:50:07.943Z,5.10
2019-02-25T18:52:38.007Z,5.00
2019-02-25T18:55:08.954Z,5.10
2019-02-25T18:57:37.646Z,5.20
2019-02-25T19:00:08.499Z,5.10
2019-02-25T19:02:38.058Z,5.00
2019-02-25T19:05:10.533Z,4.90
2019-02-25T19:07:37.516Z,4.90
2019-02-25T19:10:05.790Z,4.90
2019-02-25T19:12:34.190Z,4.90
2019-02-25T19:15:04.428Z,4.90
2019-02-25T19:17:32.529Z,5.00
2019-02-25T19:20:00.988Z,5.00
2019-02-25T19:22:30.874Z,5.10
2019-02-25T19:24:59.088Z,5.20
2019-02-25T19:27:29.024Z,5.20
2019-02-25T19:30:00.184Z,5.20
2019-02-25T19:32:27.719Z,5.20
2019-02-25T19:34:56.762Z,5.30
2019-02-25T19:37:28.893Z,5.30
2019-02-25T19:39:56.249Z,5.30
2019-02-25T19:42:26.420Z,5.20
2019-02-25T19:44:56.274Z,5.20
2019-02-25T19:47:24.625Z,5.30
2019-02-25T19:49:52.906Z,5.20
2019-02-25T19:52:21.072Z,5.20
2019-02-25T19:54:50.702Z,5.10
2019-02-25T19:57:20.995Z,5.20
2019-02-25T19:59:50.583Z,5.10
2019-02-25T20:02:19.366Z,5.00
2019-02-25T20:04:50.160Z,5.00
2019-02-25T20:07:18.555Z,4.90
2019-02-25T20:09:47.947Z,4.90
2019-02-25T20:12:16.366Z,4.90
2019-02-25T20:14:46.595Z,4.80
2019-02-25T20:17:14.888Z,4.80
2019-02-25T20:19:44.039Z,4.70
2019-02-25T20:22:14.543Z,4.60
2019-02-25T20:24:46.020Z,4.60
2019-02-25T20:27:13.263Z,4.60
2019-02-25T20:29:42.442Z,4.60
2019-02-25T20:32:12.211Z,4.60
2019-02-25T20:34:40.917Z,4.60
2019-02-25T20:37:09.246Z,4.60
2019-02-25T20:39:38.661Z,4.50
2019-02-25T20:42:06.913Z,4.40
2019-02-25T20:44:35.536Z,4.30
2019-02-25T20:47:04.201Z,4.30
2019-02-25T20:49:32.729Z,4.20
2019-02-25T20:52:01.617Z,4.30
2019-02-25T20:54:29.804Z,4.30
2019-02-25T20:56:58.167Z,4.40
2019-02-25T20:59:28.086Z,4.40
2019-02-25T21:01:56.504Z,4.40
2019-02-25T21:04:24.790Z,4.40
2019-02-25T21:06:52.985Z,4.40
2019-02-25T21:09:21.321Z,4.40
2019-02-25T21:11:49.492Z,4.30
2019-02-25T21:14:17.695Z,4.30
2019-02-25T21:16:45.925Z,4.20
2019-02-25T21:19:15.561Z,4.10
2019-02-25T21:21:44.318Z,4.10
2019-02-25T21:24:13.570Z,4.20
2019-02-25T21:26:42.066Z,4.10
2019-02-25T21:29:10.219Z,4.00
2019-02-25T21:31:42.802Z,4.00
2019-02-25T21:34:08.916Z,4.00
2019-02-25T21:36:38.243Z,4.00
2019-02-25T21:39:10.047Z,4.00
2019-02-25T21:41:39.587Z,4.10
2019-02-25T21:44:08.922Z,4.00
2019-02-25T21:46:37.236Z,3.90
2019-02-25T21:49:06.617Z,3.70
2019-02-25T21:51:36.907Z,3.60
2019-02-25T21:54:06.770Z,3.60
2019-02-25T21:56:35.270Z,3.70
2019-02-25T21:59:03.496Z,3.60
2019-02-25T22:01:32.319Z,3.60
2019-02-25T22:04:01.295Z,3.50
2019-02-25T22:06:31.245Z,3.40
2019-02-25T22:09:00.835Z,3.40
2019-02-25T22:11:29.487Z,3.40
2019-02-25T22:13:57.813Z,3.40
2019-02-25T22:16:27.800Z,3.40
2019-02-25T22:18:56.605Z,3.40
2019-02-25T22:21:25.463Z,3.40
2019-02-25T22:23:56.167Z,3.40
2019-02-25T22:26:27.198Z,3.30
2019-02-25T22:28:55.408Z,3.30
2019-02-25T22:31:24.206Z,3.30
2019-02-25T22:33:52.377Z,3.40
2019-02-25T22:36:20.605Z,3.30
2019-02-25T22:38:48.829Z,3.30
2019-02-25T22:41:18.871Z,3.20
2019-02-25T22:43:48.223Z,3.20
2019-02-25T22:46:16.703Z,3.10
2019-02-25T22:48:47.113Z,3.00
2019-02-25T22:51:15.007Z,3.10
2019-02-25T22:53:43.241Z,3.20
2019-02-25T22:56:13.405Z,3.20
2019-02-25T22:58:42.964Z,3.10
2019-02-25T23:01:17.490Z,3.10
2019-02-25T23:03:45.545Z,3.20
2019-02-25T23:06:15.786Z,3.20
2019-02-25T23:08:46.443Z,3.30
2019-02-25T23:11:16.563Z,3.30
2019-02-25T23:13:45.726Z,3.30
2019-02-25T23:16:15.610Z,3.30
2019-02-25T23:18:44.550Z,3.30
2019-02-25T23:21:12.814Z,3.30
2019-02-25T23:23:41.016Z,3.20
2019-02-25T23:26:10.438Z,3.10
2019-02-25T23:28:39.001Z,3.10
2019-02-25T23:31:07.159Z,3.10
2019-02-25T23:33:38.131Z,3.10
2019-02-25T23:36:05.512Z,3.00
2019-02-25T23:38:33.695Z,3.00
2019-02-25T23:41:05.298Z,3.00
2019-02-25T23:43:35.962Z,2.90
2019-02-25T23:46:04.428Z,2.90
2019-02-25T23:48:33.687Z,2.90
2019-02-25T23:51:02.674Z,2.90
2019-02-25T23:53:32.765Z,2.90
2019-02-25T23:56:01.566Z,2.90
2019-02-25T23:58:29.911Z,2.80
